createdAt,value
2023-02-11T00:00:01.120Z,9.55
2023-02-11T00:02:27.689Z,7.03
2023-02-11T00:04:54.240Z,5.60
2023-02-11T00:07:20.731Z,9.73
2023-02-11T00:09:47.230Z,9.55
2023-02-11T00:12:13.729Z,9.60
2023-02-11T00:14:40.299Z,8.30
2023-02-11T00:17:06.775Z,6.97
2023-02-11T00:19:33.265Z,6.70
2023-02-11T00:21:59.720Z,8.02
2023-02-11T00:24:26.229Z,7.93
2023-02-11T00:26:52.725Z,7.45
2023-02-11T00:29:19.183Z,7.78
2023-02-11T00:31:45.836Z,7.97
2023-02-11T00:34:12.386Z,9.30
2023-02-11T00:36:38.878Z,7.85
2023-02-11T00:39:05.358Z,6.97
2023-02-11T00:41:31.803Z,10.98
2023-02-11T00:43:58.289Z,9.02
2023-02-11T00:46:24.907Z,7.65
2023-02-11T00:48:51.464Z,8.50
2023-02-11T00:51:17.965Z,6.28
2023-02-11T00:53:44.422Z,7.10
2023-02-11T00:56:10.920Z,6.53
2023-02-11T00:58:37.414Z,9.48
2023-02-11T01:01:03.902Z,8.35
2023-02-11T01:03:30.418Z,7.57
2023-02-11T01:05:56.875Z,9.85
2023-02-11T01:08:23.380Z,8.35
2023-02-11T01:10:49.955Z,6.57
2023-02-11T01:13:16.442Z,7.78
2023-02-11T01:15:42.938Z,6.82
2023-02-11T01:18:09.482Z,7.28
2023-02-11T01:20:35.945Z,8.88
2023-02-11T01:23:02.446Z,8.50
2023-02-11T01:25:28.951Z,8.70
2023-02-11T01:27:55.470Z,7.18
2023-02-11T01:30:21.957Z,6.53
2023-02-11T01:32:48.473Z,9.27
2023-02-11T01:35:14.955Z,8.75
2023-02-11T01:37:41.452Z,7.53
2023-02-11T01:40:07.923Z,7.80
2023-02-11T01:42:34.413Z,7.25
2023-02-11T01:45:00.871Z,7.88
2023-02-11T01:47:27.325Z,8.43
2023-02-11T01:49:53.817Z,8.40
2023-02-11T01:52:20.359Z,7.13
2023-02-11T01:54:46.893Z,9.18
2023-02-11T01:57:13.396Z,7.22
2023-02-11T01:59:39.895Z,9.68
2023-02-11T02:02:06.373Z,9.00
2023-02-11T02:04:32.817Z,7.38
2023-02-11T02:06:59.298Z,8.70
2023-02-11T02:09:25.798Z,8.60
2023-02-11T02:11:52.286Z,8.30
2023-02-11T02:14:18.781Z,9.52
2023-02-11T02:16:45.274Z,8.25
2023-02-11T02:19:11.731Z,8.90
2023-02-11T02:21:38.199Z,8.48
2023-02-11T02:24:04.647Z,8.45
2023-02-11T02:26:31.154Z,7.63
2023-02-11T02:28:57.607Z,8.90
2023-02-11T02:31:24.081Z,7.32
2023-02-11T02:33:50.616Z,7.15
2023-02-11T02:36:17.081Z,7.90
2023-02-11T02:38:43.522Z,8.57
2023-02-11T02:41:10.012Z,8.73
2023-02-11T02:43:36.494Z,8.57
2023-02-11T02:46:02.995Z,10.13
2023-02-11T02:48:29.489Z,8.35
2023-02-11T02:50:55.969Z,9.45
2023-02-11T02:53:22.439Z,8.40
2023-02-11T02:55:49.117Z,7.47
2023-02-11T02:58:15.764Z,7.95
2023-02-11T03:00:42.266Z,7.05
2023-02-11T03:03:08.823Z,8.05
2023-02-11T03:05:36.427Z,8.35
2023-02-11T03:08:02.946Z,8.80
2023-02-11T03:10:29.449Z,10.52
2023-02-11T03:12:55.907Z,9.05
2023-02-11T03:15:22.358Z,8.68
2023-02-11T03:17:48.879Z,8.32
2023-02-11T03:20:15.384Z,7.47
2023-02-11T03:22:41.906Z,10.75
2023-02-11T03:25:08.423Z,9.95
2023-02-11T03:27:34.894Z,9.18
2023-02-11T03:30:01.367Z,9.15
2023-02-11T03:32:27.849Z,9.35
2023-02-11T03:34:54.347Z,9.20
2023-02-11T03:37:20.832Z,9.20
2023-02-11T03:39:47.311Z,10.63
2023-02-11T03:42:13.790Z,9.07
2023-02-11T03:44:40.345Z,9.75
2023-02-11T03:47:06.854Z,11.23
2023-02-11T03:49:33.424Z,9.25
2023-02-11T03:51:59.914Z,10.27
2023-02-11T03:54:26.443Z,9.85
2023-02-11T03:56:52.902Z,8.48
2023-02-11T03:59:19.395Z,7.93
2023-02-11T04:01:45.880Z,9.02
2023-02-11T04:04:12.334Z,7.18
2023-02-11T04:06:38.785Z,8.80
2023-02-11T04:09:05.306Z,8.00
2023-02-11T04:11:31.822Z,10.95
2023-02-11T04:13:58.374Z,10.88
2023-02-11T04:16:24.957Z,8.75
2023-02-11T04:18:51.476Z,7.57
2023-02-11T04:21:17.977Z,10.20
2023-02-11T04:23:44.498Z,8.95
2023-02-11T04:26:11.020Z,7.38
2023-02-11T04:28:37.520Z,10.95
2023-02-11T04:31:04.049Z,8.13
2023-02-11T04:33:30.514Z,10.05
2023-02-11T04:35:56.973Z,8.60
2023-02-11T04:38:23.968Z,8.25
2023-02-11T04:40:50.425Z,9.67
2023-02-11T04:43:16.933Z,9.18
2023-02-11T04:45:43.482Z,10.30
2023-02-11T04:48:10.000Z,10.15
2023-02-11T04:50:36.456Z,8.23
2023-02-11T04:53:02.926Z,8.50
2023-02-11T04:55:29.412Z,10.23
2023-02-11T04:57:55.861Z,11.35
2023-02-11T05:00:22.323Z,8.43
2023-02-11T05:02:48.809Z,8.57
2023-02-11T05:05:15.354Z,8.13
2023-02-11T05:07:41.835Z,10.35
2023-02-11T05:10:08.339Z,9.93
2023-02-11T05:12:34.837Z,9.70
2023-02-11T05:15:01.314Z,9.57
2023-02-11T05:17:27.842Z,8.20
2023-02-11T05:19:54.395Z,9.02
2023-02-11T05:22:20.853Z,9.70
2023-02-11T05:24:47.325Z,11.98
2023-02-11T05:27:13.834Z,8.52
2023-02-11T05:29:40.325Z,10.23
2023-02-11T05:32:06.810Z,9.20
2023-02-11T05:34:33.286Z,10.00
2023-02-11T05:36:59.834Z,9.52
2023-02-11T05:39:26.354Z,10.30
2023-02-11T05:41:52.895Z,9.95
2023-02-11T05:44:19.395Z,8.85
2023-02-11T05:46:45.947Z,8.27
2023-02-11T05:49:12.489Z,11.02
2023-02-11T05:51:38.945Z,9.27
2023-02-11T05:54:05.440Z,12.65
2023-02-11T05:56:31.928Z,10.57
2023-02-11T05:58:58.405Z,12.60
2023-02-11T06:01:24.897Z,8.98
2023-02-11T06:03:51.491Z,9.40
2023-02-11T06:06:18.046Z,11.43
2023-02-11T06:08:44.517Z,10.32
2023-02-11T06:11:10.984Z,11.48
2023-02-11T06:13:37.438Z,14.00
2023-02-11T06:16:03.940Z,11.30
2023-02-11T06:18:30.467Z,11.98
2023-02-11T06:20:56.952Z,14.43
2023-02-11T06:23:23.480Z,10.93
2023-02-11T06:25:50.589Z,10.77
2023-02-11T06:28:17.293Z,12.52
2023-02-11T06:30:43.871Z,11.85
2023-02-11T06:33:10.399Z,13.20
2023-02-11T06:35:36.878Z,12.73
2023-02-11T06:38:03.342Z,12.48
2023-02-11T06:40:29.835Z,12.85
2023-02-11T06:42:56.365Z,12.18
2023-02-11T06:45:22.855Z,14.20
2023-02-11T06:47:49.308Z,16.23
2023-02-11T06:50:15.809Z,14.57
2023-02-11T06:52:42.255Z,13.52
2023-02-11T06:55:08.700Z,17.00
2023-02-11T06:57:35.191Z,18.13
2023-02-11T07:00:01.682Z,16.15
2023-02-11T07:02:28.240Z,11.63
2023-02-11T07:04:54.798Z,13.50
2023-02-11T07:07:21.251Z,16.92
2023-02-11T07:09:47.711Z,18.90
2023-02-11T07:12:14.211Z,20.30
2023-02-11T07:14:40.676Z,15.15
2023-02-11T07:17:07.173Z,18.58
2023-02-11T07:19:33.678Z,16.02
2023-02-11T07:22:00.195Z,13.57
2023-02-11T07:24:26.695Z,17.38
2023-02-11T07:26:53.158Z,15.20
2023-02-11T07:29:19.617Z,17.13
2023-02-11T07:31:46.229Z,19.52
2023-02-11T07:34:12.816Z,18.92
2023-02-11T07:36:39.339Z,15.43
2023-02-11T07:39:05.865Z,16.67
2023-02-11T07:41:32.316Z,14.73
2023-02-11T07:43:58.851Z,15.15
2023-02-11T07:46:25.396Z,19.65
2023-02-11T07:48:51.903Z,12.57
2023-02-11T07:51:18.398Z,19.63
2023-02-11T07:53:44.897Z,16.92
2023-02-11T07:56:11.432Z,16.10
2023-02-11T07:58:37.908Z,15.23
2023-02-11T08:01:04.421Z,15.75
2023-02-11T08:03:30.907Z,14.00
2023-02-11T08:05:57.368Z,14.32
2023-02-11T08:08:24.424Z,11.90
2023-02-11T08:10:51.189Z,15.07
2023-02-11T08:13:17.892Z,12.80
2023-02-11T08:15:44.351Z,19.42
2023-02-11T08:18:10.804Z,21.00
2023-02-11T08:20:37.259Z,24.92
2023-02-11T08:23:03.702Z,16.35
2023-02-11T08:25:30.182Z,12.95
2023-02-11T08:27:56.696Z,16.33
2023-02-11T08:30:25.072Z,12.13
2023-02-11T08:32:52.771Z,14.77
2023-02-11T08:35:19.267Z,10.60
2023-02-11T08:37:45.738Z,14.07
2023-02-11T08:40:12.217Z,17.13
2023-02-11T08:42:38.666Z,15.57
2023-02-11T08:45:05.228Z,14.13
2023-02-11T08:47:31.714Z,21.92
2023-02-11T08:49:58.197Z,16.02
2023-02-11T08:52:24.662Z,13.48
2023-02-11T08:54:51.176Z,15.52
2023-02-11T08:57:17.690Z,15.30
2023-02-11T08:59:44.194Z,15.13
2023-02-11T09:02:10.749Z,13.93
2023-02-11T09:04:37.257Z,13.52
2023-02-11T09:07:03.737Z,17.67
2023-02-11T09:09:30.424Z,14.82
2023-02-11T09:11:57.217Z,17.67
2023-02-11T09:14:23.666Z,15.13
2023-02-11T09:16:50.215Z,12.77
2023-02-11T09:19:16.717Z,16.25
2023-02-11T09:21:43.173Z,12.43
2023-02-11T09:24:09.663Z,13.15
2023-02-11T09:26:36.150Z,11.30
2023-02-11T09:29:02.621Z,16.42
2023-02-11T09:31:29.294Z,10.50
2023-02-11T09:33:55.873Z,9.77
2023-02-11T09:36:22.389Z,8.45
2023-02-11T09:38:48.869Z,12.48
2023-02-11T09:41:15.355Z,9.10
2023-02-11T09:43:41.868Z,13.55
2023-02-11T09:46:08.365Z,12.18
2023-02-11T09:48:34.846Z,10.00
2023-02-11T09:51:01.298Z,9.95
2023-02-11T09:53:27.803Z,7.70
2023-02-11T09:55:54.365Z,9.27
2023-02-11T09:58:20.873Z,13.23
2023-02-11T10:00:47.352Z,7.40
2023-02-11T10:03:13.829Z,9.93
2023-02-11T10:05:40.292Z,9.05
2023-02-11T10:08:06.778Z,9.07
2023-02-11T10:10:33.341Z,13.25
2023-02-11T10:12:59.843Z,10.57
2023-02-11T10:15:26.351Z,12.63
2023-02-11T10:17:52.924Z,9.77
2023-02-11T10:20:19.398Z,10.00
2023-02-11T10:22:45.861Z,12.43
2023-02-11T10:25:12.373Z,15.32
2023-02-11T10:27:38.905Z,14.73
2023-02-11T10:30:05.522Z,32.70
2023-02-11T10:32:31.991Z,17.23
2023-02-11T10:34:58.456Z,8.32
2023-02-11T10:37:24.986Z,9.63
2023-02-11T10:39:51.493Z,11.00
2023-02-11T10:42:17.996Z,7.90
2023-02-11T10:44:44.468Z,9.40
2023-02-11T10:47:10.955Z,12.93
2023-02-11T10:49:37.407Z,7.47
2023-02-11T10:52:03.854Z,11.75
2023-02-11T10:54:30.369Z,11.52
2023-02-11T10:56:56.860Z,6.25
2023-02-11T10:59:23.387Z,8.45
2023-02-11T11:01:50.027Z,9.05
2023-02-11T11:04:16.720Z,6.90
2023-02-11T11:06:43.230Z,8.88
2023-02-11T11:09:09.685Z,7.68
2023-02-11T11:11:36.163Z,10.38
2023-02-11T11:14:02.719Z,7.22
2023-02-11T11:16:29.313Z,11.10
2023-02-11T11:18:55.861Z,7.32
2023-02-11T11:21:22.372Z,7.65
2023-02-11T11:23:48.873Z,7.15
2023-02-11T11:26:15.354Z,10.85
2023-02-11T11:28:41.843Z,11.07
2023-02-11T11:31:08.544Z,13.63
2023-02-11T11:33:35.092Z,8.98
2023-02-11T11:36:01.631Z,10.82
2023-02-11T11:38:28.135Z,10.57
2023-02-11T11:40:54.622Z,13.10
2023-02-11T11:43:23.236Z,10.93
2023-02-11T11:45:49.916Z,7.57
2023-02-11T11:48:16.426Z,10.35
2023-02-11T11:50:42.948Z,10.80
2023-02-11T11:53:09.418Z,8.75
2023-02-11T11:55:35.915Z,8.88
2023-02-11T11:58:02.425Z,7.18
2023-02-11T12:00:28.918Z,6.63
2023-02-11T12:02:55.460Z,5.50
2023-02-11T12:05:21.973Z,6.70
2023-02-11T12:07:48.503Z,7.47
2023-02-11T12:10:15.105Z,7.32
2023-02-11T12:12:41.596Z,10.85
2023-02-11T12:15:08.040Z,10.10
2023-02-11T12:17:34.508Z,9.80
2023-02-11T12:20:01.021Z,6.90
2023-02-11T12:22:27.560Z,7.15
2023-02-11T12:24:54.017Z,6.60
2023-02-11T12:27:20.499Z,5.40
2023-02-11T12:29:46.988Z,8.40
2023-02-11T12:32:13.540Z,5.97
2023-02-11T12:34:40.059Z,9.75
2023-02-11T12:37:08.033Z,8.90
2023-02-11T12:39:34.676Z,8.75
2023-02-11T12:42:01.200Z,5.22
2023-02-11T12:44:27.706Z,9.20
2023-02-11T12:46:54.203Z,6.47
2023-02-11T12:49:20.672Z,5.30
2023-02-11T12:51:47.173Z,9.13
2023-02-11T12:54:13.673Z,5.85
2023-02-11T13:07:45.552Z,4.95
2023-02-11T13:10:20.776Z,7.13
2023-02-11T13:15:43.993Z,4.60
2023-02-11T13:18:19.596Z,5.55
2023-02-11T13:23:36.587Z,5.70
2023-02-11T13:26:03.131Z,4.45
2023-02-11T13:28:36.262Z,6.63
2023-02-11T13:34:11.815Z,4.40
2023-02-11T13:36:50.280Z,4.35
2023-02-11T13:39:31.866Z,5.20
2023-02-11T13:42:01.704Z,6.65
2023-02-11T13:44:37.058Z,4.82
2023-02-11T13:47:06.916Z,3.53
2023-02-11T13:49:39.543Z,4.88
2023-02-11T13:52:06.063Z,6.88
2023-02-11T14:00:31.907Z,4.60
2023-02-11T14:03:05.775Z,3.35
2023-02-11T14:05:35.048Z,4.10
2023-02-11T14:08:02.907Z,4.70
2023-02-11T14:13:13.526Z,5.10
2023-02-11T14:15:48.892Z,3.90
2023-02-11T14:18:21.968Z,3.67
2023-02-11T14:29:01.880Z,4.13
2023-02-11T14:31:28.469Z,3.25
2023-02-11T14:33:57.818Z,4.70
2023-02-11T14:36:24.343Z,4.70
2023-02-11T14:39:01.446Z,4.32
2023-02-11T14:44:19.187Z,4.47
2023-02-11T14:49:45.158Z,2.83
2023-02-11T14:52:21.171Z,8.07
2023-02-11T14:54:51.641Z,4.78
2023-02-11T14:57:18.135Z,4.50
2023-02-11T14:59:47.927Z,7.70
2023-02-11T15:02:22.155Z,6.13
2023-02-11T15:07:32.647Z,5.97
2023-02-11T15:09:59.098Z,5.88
2023-02-11T15:12:25.582Z,3.38
2023-02-11T15:14:52.054Z,5.30
2023-02-11T15:17:18.504Z,4.85
2023-02-11T15:19:44.977Z,5.55
2023-02-11T15:22:11.463Z,5.20
2023-02-11T15:24:37.962Z,8.50
2023-02-11T15:27:04.421Z,4.57
2023-02-11T15:29:30.935Z,9.93
2023-02-11T15:31:57.553Z,4.43
2023-02-11T15:34:24.064Z,2.88
2023-02-11T15:36:50.543Z,7.50
2023-02-11T15:39:17.043Z,4.57
2023-02-11T15:41:43.510Z,5.00
2023-02-11T15:44:09.987Z,4.28
2023-02-11T15:46:36.645Z,6.57
2023-02-11T15:49:03.190Z,9.05
2023-02-11T15:51:29.712Z,8.23
2023-02-11T15:53:56.159Z,12.43
2023-02-11T15:56:22.668Z,8.40
2023-02-11T15:58:49.161Z,4.45
2023-02-11T16:01:15.619Z,10.32
2023-02-11T16:03:42.077Z,5.32
2023-02-11T16:06:08.519Z,5.68
2023-02-11T16:08:35.008Z,7.40
2023-02-11T16:11:01.462Z,4.68
2023-02-11T16:13:27.985Z,6.75
2023-02-11T16:15:54.564Z,6.75
2023-02-11T16:18:24.610Z,5.40
2023-02-11T16:20:54.934Z,5.63
2023-02-11T16:23:21.429Z,5.65
2023-02-11T16:25:47.880Z,5.55
2023-02-11T16:28:14.369Z,5.57
2023-02-11T16:30:40.941Z,6.57
2023-02-11T16:33:07.441Z,4.90
2023-02-11T16:35:33.932Z,5.22
2023-02-11T16:38:00.419Z,4.50
2023-02-11T16:40:26.981Z,6.60
2023-02-11T16:42:53.521Z,4.38
2023-02-11T16:45:20.114Z,3.95
2023-02-11T16:47:46.608Z,8.35
2023-02-11T16:50:13.097Z,5.85
2023-02-11T16:52:39.591Z,4.53
2023-02-11T16:55:06.107Z,5.13
2023-02-11T16:57:32.589Z,6.30
2023-02-11T16:59:59.082Z,5.75
2023-02-11T17:02:25.592Z,5.13
2023-02-11T17:04:52.148Z,6.35
2023-02-11T17:07:18.678Z,10.32
2023-02-11T17:09:45.134Z,3.53
2023-02-11T17:12:11.590Z,4.10
2023-02-11T17:14:38.071Z,3.78
2023-02-11T17:17:04.596Z,4.95
2023-02-11T17:19:31.072Z,4.53
2023-02-11T17:21:57.538Z,4.85
2023-02-11T17:24:24.046Z,4.10
2023-02-11T17:26:50.486Z,4.30
2023-02-11T17:29:16.974Z,6.75
2023-02-11T17:31:43.522Z,7.32
2023-02-11T17:34:10.056Z,5.18
2023-02-11T17:36:36.567Z,8.48
2023-02-11T17:39:03.070Z,4.82
2023-02-11T17:41:29.632Z,5.35
2023-02-11T17:43:56.224Z,5.55
2023-02-11T17:46:22.694Z,5.75
2023-02-11T17:48:49.175Z,7.30
2023-02-11T17:51:15.658Z,5.82
2023-02-11T17:53:42.153Z,8.05
2023-02-11T17:56:08.656Z,8.38
2023-02-11T17:58:35.106Z,6.72
2023-02-11T18:01:01.648Z,7.75
2023-02-11T18:03:28.132Z,6.45
2023-02-11T18:05:54.594Z,7.38
2023-02-11T18:08:21.195Z,18.73
2023-02-11T18:10:47.664Z,6.05
2023-02-11T18:13:14.172Z,25.27
2023-02-11T18:15:40.616Z,8.63
2023-02-11T18:18:07.135Z,10.52
2023-02-11T18:20:33.602Z,5.13
2023-02-11T18:23:00.110Z,6.97
2023-02-11T18:25:26.612Z,17.67
2023-02-11T18:27:53.115Z,9.40
2023-02-11T18:30:19.615Z,10.63
2023-02-11T18:32:46.108Z,11.00
2023-02-11T18:35:14.711Z,15.77
2023-02-11T18:37:41.412Z,13.88
2023-02-11T18:40:07.911Z,8.02
2023-02-11T18:42:34.404Z,5.18
2023-02-11T18:45:00.903Z,12.93
2023-02-11T18:47:27.356Z,11.75
2023-02-11T18:49:53.834Z,7.75
2023-02-11T18:52:20.288Z,34.17
2023-02-11T18:54:46.785Z,8.90
2023-02-11T18:57:13.306Z,10.13
2023-02-11T18:59:39.756Z,8.40
2023-02-11T19:02:06.268Z,5.53
2023-02-11T19:04:32.822Z,7.25
2023-02-11T19:06:59.333Z,6.10
2023-02-11T19:09:25.812Z,8.45
2023-02-11T19:11:52.335Z,5.25
2023-02-11T19:14:18.812Z,5.72
2023-02-11T19:16:45.321Z,6.47
2023-02-11T19:19:11.822Z,10.15
2023-02-11T19:21:38.276Z,8.68
2023-02-11T19:24:04.782Z,8.75
2023-02-11T19:26:31.242Z,10.27
2023-02-11T19:28:57.685Z,7.80
2023-02-11T19:31:24.227Z,8.93
2023-02-11T19:33:50.790Z,5.93
2023-02-11T19:36:17.276Z,5.53
2023-02-11T19:38:43.757Z,6.85
2023-02-11T19:41:10.216Z,5.68
2023-02-11T19:43:36.663Z,3.97
2023-02-11T19:46:03.175Z,5.53
2023-02-11T19:48:29.648Z,4.20
2023-02-11T19:50:56.087Z,5.63
2023-02-11T19:53:22.589Z,3.90
2023-02-11T19:55:49.389Z,5.20
2023-02-11T19:58:16.073Z,6.00
2023-02-11T20:00:42.563Z,4.95
2023-02-11T20:03:09.194Z,5.35
2023-02-11T20:05:35.654Z,4.15
2023-02-11T20:08:02.242Z,5.40
2023-02-11T20:10:28.744Z,3.72
2023-02-11T20:12:55.200Z,3.97
2023-02-11T20:15:21.698Z,4.03
2023-02-11T20:17:48.256Z,5.47
2023-02-11T20:20:14.862Z,5.38
2023-02-11T20:22:41.352Z,6.57
2023-02-11T20:25:07.842Z,5.18
2023-02-11T20:27:34.311Z,5.32
2023-02-11T20:30:00.803Z,6.15
2023-02-11T20:32:27.334Z,5.47
2023-02-11T20:34:53.853Z,5.10
2023-02-11T20:37:20.367Z,4.18
2023-02-11T20:39:46.871Z,5.22
2023-02-11T20:42:13.345Z,4.60
2023-02-11T20:44:39.807Z,5.10
2023-02-11T20:47:06.289Z,3.38
2023-02-11T20:49:32.906Z,3.40
2023-02-11T20:51:59.442Z,4.55
2023-02-11T20:54:25.970Z,3.28
2023-02-11T20:56:52.424Z,4.45
2023-02-11T20:59:18.889Z,3.70
2023-02-11T21:01:45.423Z,4.40
2023-02-11T21:04:11.902Z,4.03
2023-02-11T21:06:38.365Z,4.03
2023-02-11T21:09:04.896Z,4.68
2023-02-11T21:11:31.450Z,4.38
2023-02-11T21:13:57.959Z,6.72
2023-02-11T21:16:24.503Z,4.75
2023-02-11T21:18:50.988Z,5.35
2023-02-11T21:21:17.470Z,5.75
2023-02-11T21:23:43.972Z,4.47
2023-02-11T21:26:10.536Z,3.65
2023-02-11T21:28:39.784Z,4.70
2023-02-11T21:31:07.427Z,4.63
2023-02-11T21:33:34.018Z,5.72
2023-02-11T21:36:00.466Z,5.30
2023-02-11T21:38:26.991Z,4.55
2023-02-11T21:40:53.483Z,4.55
2023-02-11T21:43:20.010Z,5.43
2023-02-11T21:45:46.476Z,7.90
2023-02-11T21:48:12.993Z,5.28
2023-02-11T21:50:39.549Z,4.55
2023-02-11T21:53:07.095Z,15.60
2023-02-11T21:55:33.685Z,14.15
2023-02-11T21:58:00.144Z,13.02
2023-02-11T22:00:26.639Z,9.02
2023-02-11T22:02:53.185Z,15.15
2023-02-11T22:05:19.673Z,6.93
2023-02-11T22:07:46.120Z,4.85
2023-02-11T22:10:12.620Z,14.70
2023-02-11T22:12:39.154Z,6.05
2023-02-11T22:15:05.672Z,11.18
2023-02-11T22:17:32.222Z,10.48
2023-02-11T22:19:58.729Z,7.43
2023-02-11T22:22:25.191Z,9.85
2023-02-11T22:24:51.673Z,7.45
2023-02-11T22:27:20.193Z,6.28
2023-02-11T22:29:46.840Z,9.48
2023-02-11T22:32:13.380Z,9.20
2023-02-11T22:34:39.949Z,8.05
2023-02-11T22:37:06.457Z,7.50
2023-02-11T22:39:32.929Z,5.78
2023-02-11T22:41:59.430Z,6.35
2023-02-11T22:44:25.941Z,6.78
2023-02-11T22:46:52.420Z,5.28
2023-02-11T22:49:18.972Z,8.80
2023-02-11T22:51:45.445Z,5.07
2023-02-11T22:54:11.909Z,5.80
2023-02-11T22:56:38.368Z,5.30
2023-02-11T22:59:04.967Z,9.15
2023-02-11T23:01:31.563Z,6.57
2023-02-11T23:03:58.152Z,6.28
2023-02-11T23:06:24.620Z,5.88
2023-02-11T23:08:51.086Z,7.78
2023-02-11T23:11:17.619Z,8.40
2023-02-11T23:13:44.104Z,9.75
2023-02-11T23:16:10.607Z,5.40
2023-02-11T23:18:37.176Z,4.90
2023-02-11T23:21:03.689Z,7.47
2023-02-11T23:23:30.180Z,5.53
2023-02-11T23:25:56.966Z,7.40
2023-02-11T23:28:23.696Z,4.43
2023-02-11T23:30:50.243Z,6.63
2023-02-11T23:33:16.789Z,7.47
2023-02-11T23:35:43.268Z,6.50
2023-02-11T23:38:09.809Z,5.68
2023-02-11T23:40:36.317Z,4.93
2023-02-11T23:43:02.816Z,6.28
2023-02-11T23:45:29.282Z,5.05
2023-02-11T23:47:55.772Z,7.90
2023-02-11T23:50:22.299Z,6.50
2023-02-11T23:52:48.778Z,4.30
2023-02-11T23:55:15.279Z,5.97
2023-02-11T23:57:41.763Z,7.30
